createdAt,value
2023-04-29T00:02:23.445Z,25.87
2023-04-29T00:04:51.284Z,28.50
2023-04-29T00:07:18.896Z,26.97
2023-04-29T00:09:46.460Z,26.27
2023-04-29T00:12:13.956Z,29.57
2023-04-29T00:14:41.526Z,25.87
2023-04-29T00:17:09.218Z,30.00
2023-04-29T00:19:36.843Z,31.30
2023-04-29T00:22:04.376Z,34.37
2023-04-29T00:24:31.914Z,29.50
2023-04-29T00:26:59.525Z,32.00
2023-04-29T00:29:27.129Z,33.57
2023-04-29T00:31:54.678Z,36.57
2023-04-29T00:34:22.246Z,34.20
2023-04-29T00:36:49.735Z,31.73
2023-04-29T00:39:17.335Z,32.27
2023-04-29T00:41:44.864Z,34.00
2023-04-29T00:44:12.475Z,31.27
2023-04-29T00:46:40.214Z,30.53
2023-04-29T00:49:08.491Z,34.53
2023-04-29T00:51:37.469Z,33.53
2023-04-29T00:54:05.825Z,34.40
2023-04-29T00:56:34.698Z,33.37
2023-04-29T00:59:02.834Z,34.47
2023-04-29T01:01:31.010Z,35.13
2023-04-29T01:03:58.851Z,36.17
2023-04-29T01:06:47.601Z,31.47
2023-04-29T01:09:48.129Z,33.67
2023-04-29T01:12:39.409Z,33.17
2023-04-29T01:15:22.980Z,32.23
2023-04-29T01:17:59.293Z,32.87
2023-04-29T01:20:27.332Z,37.53
2023-04-29T01:22:54.855Z,36.20
2023-04-29T01:25:22.396Z,35.77
2023-04-29T01:27:58.489Z,33.13
2023-04-29T01:30:36.755Z,38.53
2023-04-29T01:33:11.550Z,35.57
2023-04-29T01:35:45.124Z,36.60
2023-04-29T01:38:21.170Z,30.27
2023-04-29T01:40:50.159Z,31.60
2023-04-29T01:43:18.534Z,33.43
2023-04-29T01:45:46.070Z,32.33
2023-04-29T01:48:13.617Z,34.43
2023-04-29T01:50:41.146Z,34.77
2023-04-29T01:53:08.677Z,33.13
2023-04-29T01:55:36.320Z,31.90
2023-04-29T01:58:03.829Z,33.60
2023-04-29T02:00:31.400Z,28.17
2023-04-29T02:02:59.095Z,34.03
2023-04-29T02:05:26.695Z,32.90
2023-04-29T02:07:54.172Z,30.03
2023-04-29T02:10:21.748Z,31.40
2023-04-29T02:12:49.248Z,28.57
2023-04-29T02:15:16.803Z,31.83
2023-04-29T02:17:44.399Z,29.03
2023-04-29T02:20:12.293Z,29.67
2023-04-29T02:22:39.753Z,29.17
2023-04-29T02:25:07.447Z,29.03
2023-04-29T02:27:34.966Z,26.80
2023-04-29T02:30:02.692Z,27.60
2023-04-29T02:32:30.315Z,29.63
2023-04-29T02:34:57.906Z,31.67
2023-04-29T02:37:25.410Z,33.13
2023-04-29T02:39:53.347Z,25.17
2023-04-29T02:42:21.243Z,33.43
2023-04-29T02:44:48.810Z,31.43
2023-04-29T02:47:16.400Z,30.50
2023-04-29T02:49:43.977Z,33.47
2023-04-29T02:52:11.453Z,26.43
2023-04-29T02:54:39.034Z,33.97
2023-04-29T02:57:06.561Z,31.63
2023-04-29T02:59:34.155Z,34.30
2023-04-29T03:02:01.692Z,35.20
2023-04-29T03:04:29.367Z,35.10
2023-04-29T03:06:57.138Z,37.57
2023-04-29T03:09:24.775Z,37.93
2023-04-29T03:11:52.329Z,34.90
2023-04-29T03:14:19.914Z,35.87
2023-04-29T03:16:47.481Z,32.10
2023-04-29T03:19:15.062Z,33.20
2023-04-29T03:21:42.556Z,33.30
2023-04-29T03:24:10.140Z,33.50
2023-04-29T03:26:37.649Z,33.93
2023-04-29T03:29:05.182Z,33.53
2023-04-29T03:31:32.679Z,31.87
2023-04-29T03:34:00.405Z,33.33
2023-04-29T03:36:27.924Z,32.67
2023-04-29T03:38:55.449Z,31.20
2023-04-29T03:41:22.953Z,32.90
2023-04-29T03:43:50.769Z,34.33
2023-04-29T03:46:20.886Z,31.00
2023-04-29T03:48:48.434Z,30.50
2023-04-29T03:51:15.963Z,30.53
2023-04-29T03:53:43.537Z,30.97
2023-04-29T03:56:11.019Z,30.80
2023-04-29T03:58:38.583Z,29.63
2023-04-29T04:01:06.182Z,30.07
2023-04-29T04:03:33.865Z,28.93
2023-04-29T04:06:01.450Z,28.30
2023-04-29T04:08:28.984Z,27.77
2023-04-29T04:10:56.520Z,22.33
2023-04-29T04:13:24.094Z,21.10
2023-04-29T04:15:51.724Z,22.40
2023-04-29T04:18:22.198Z,19.13
2023-04-29T04:20:49.788Z,21.10
2023-04-29T04:23:17.345Z,20.70
2023-04-29T04:25:48.296Z,21.53
2023-04-29T04:28:15.940Z,19.80
2023-04-29T04:30:43.455Z,20.00
2023-04-29T04:33:11.042Z,21.13
2023-04-29T04:35:38.519Z,19.93
2023-04-29T04:38:06.147Z,19.53
2023-04-29T04:40:33.659Z,19.30
2023-04-29T04:43:01.272Z,18.13
2023-04-29T04:45:31.908Z,20.40
2023-04-29T04:47:59.551Z,19.70
2023-04-29T04:50:30.132Z,20.07
2023-04-29T04:52:57.823Z,20.80
2023-04-29T04:55:25.419Z,19.83
2023-04-29T04:57:52.989Z,21.60
2023-04-29T05:00:20.596Z,21.93
2023-04-29T05:02:48.270Z,21.80
2023-04-29T05:05:15.818Z,20.83
2023-04-29T05:07:43.435Z,22.37
2023-04-29T05:10:11.202Z,20.67
2023-04-29T05:12:38.929Z,21.50
2023-04-29T05:15:06.853Z,21.47
2023-04-29T05:17:34.568Z,22.70
2023-04-29T05:20:02.105Z,23.50
2023-04-29T05:22:29.693Z,23.83
2023-04-29T05:24:57.221Z,22.63
2023-04-29T05:27:24.829Z,23.23
2023-04-29T05:29:52.593Z,22.23
2023-04-29T05:32:20.473Z,22.50
2023-04-29T05:34:48.004Z,23.00
2023-04-29T05:37:15.651Z,22.23
2023-04-29T05:39:43.184Z,21.83
2023-04-29T05:42:10.700Z,22.90
2023-04-29T05:44:38.265Z,21.80
2023-04-29T05:47:05.943Z,21.53
2023-04-29T05:49:33.468Z,20.90
2023-04-29T05:52:01.021Z,22.20
2023-04-29T05:54:28.531Z,21.03
2023-04-29T05:56:56.186Z,17.93
2023-04-29T05:59:23.673Z,19.40
2023-04-29T06:01:51.249Z,19.03
2023-04-29T06:04:18.984Z,19.90
2023-04-29T06:06:46.713Z,20.03
2023-04-29T06:09:26.276Z,18.77
2023-04-29T06:11:55.416Z,18.97
2023-04-29T06:14:23.006Z,19.63
2023-04-29T06:16:50.571Z,20.33
2023-04-29T06:19:18.110Z,19.97
2023-04-29T06:21:45.668Z,18.20
2023-04-29T06:24:13.201Z,19.40
2023-04-29T06:26:40.812Z,19.17
2023-04-29T06:29:08.388Z,17.63
2023-04-29T06:31:36.165Z,17.47
2023-04-29T06:34:03.750Z,17.50
2023-04-29T06:36:31.358Z,18.83
2023-04-29T06:38:58.883Z,16.27
2023-04-29T06:41:26.454Z,18.17
2023-04-29T06:43:53.951Z,17.97
2023-04-29T06:46:21.559Z,17.07
2023-04-29T06:48:49.131Z,18.07
2023-04-29T06:51:16.686Z,17.60
2023-04-29T06:53:44.212Z,17.17
2023-04-29T06:56:11.818Z,17.00
2023-04-29T06:58:39.338Z,16.83
2023-04-29T07:01:06.956Z,16.50
2023-04-29T07:03:34.785Z,15.80
2023-04-29T07:06:02.387Z,14.87
2023-04-29T07:08:29.891Z,16.13
2023-04-29T07:10:58.369Z,15.97
2023-04-29T07:13:26.111Z,16.10
2023-04-29T07:15:53.773Z,14.73
2023-04-29T07:18:21.313Z,15.10
2023-04-29T07:20:48.923Z,13.30
2023-04-29T07:23:16.524Z,14.80
2023-04-29T07:25:44.141Z,13.93
2023-04-29T07:28:11.677Z,13.07
2023-04-29T07:30:39.609Z,13.97
2023-04-29T07:33:07.358Z,13.37
2023-04-29T07:35:34.953Z,13.90
2023-04-29T07:38:02.483Z,12.93
2023-04-29T07:40:30.109Z,13.83
2023-04-29T07:42:57.612Z,12.57
2023-04-29T07:45:25.204Z,12.60
2023-04-29T07:47:52.777Z,12.63
2023-04-29T07:50:20.484Z,12.87
2023-04-29T07:52:48.041Z,12.93
2023-04-29T07:55:15.668Z,12.37
2023-04-29T07:57:43.223Z,12.63
2023-04-29T08:00:11.088Z,12.00
2023-04-29T08:02:38.807Z,12.80
2023-04-29T08:05:06.973Z,13.27
2023-04-29T08:07:34.908Z,11.70
2023-04-29T08:10:02.547Z,13.67
2023-04-29T08:12:30.093Z,12.27
2023-04-29T08:14:57.672Z,13.00
2023-04-29T08:17:25.251Z,11.60
2023-04-29T08:19:52.819Z,13.40
2023-04-29T08:22:20.362Z,13.20
2023-04-29T08:24:47.898Z,12.77
2023-04-29T08:27:15.568Z,12.63
2023-04-29T08:29:43.236Z,13.53
2023-04-29T08:32:10.727Z,14.03
2023-04-29T08:34:38.359Z,13.23
2023-04-29T08:37:05.878Z,12.87
2023-04-29T08:39:33.512Z,15.07
2023-04-29T08:42:08.326Z,14.53
2023-04-29T08:44:36.136Z,15.73
2023-04-29T08:47:03.737Z,14.43
2023-04-29T08:49:31.406Z,16.50
2023-04-29T08:51:59.011Z,16.53
2023-04-29T08:54:26.680Z,16.63
2023-04-29T08:56:54.295Z,15.27
2023-04-29T08:59:25.774Z,15.13
2023-04-29T09:01:54.563Z,16.43
2023-04-29T09:04:41.002Z,16.67
2023-04-29T09:07:09.183Z,17.23
2023-04-29T09:09:36.714Z,15.50
2023-04-29T09:12:04.283Z,15.77
2023-04-29T09:14:32.012Z,14.80
2023-04-29T09:16:59.667Z,16.60
2023-04-29T09:19:31.048Z,17.70
2023-04-29T09:21:58.776Z,19.10
2023-04-29T09:24:30.034Z,19.00
2023-04-29T09:26:58.073Z,18.83
2023-04-29T09:29:25.760Z,17.00
2023-04-29T09:31:53.454Z,18.80
2023-04-29T09:34:32.298Z,18.37
2023-04-29T09:36:59.957Z,18.67
2023-04-29T09:39:27.454Z,17.97
2023-04-29T09:41:55.115Z,17.50
2023-04-29T09:44:27.153Z,17.40
2023-04-29T09:46:58.651Z,18.73
2023-04-29T09:49:27.476Z,18.63
2023-04-29T09:51:54.949Z,18.37
2023-04-29T09:54:23.337Z,18.30
2023-04-29T09:56:51.536Z,15.37
2023-04-29T09:59:19.668Z,19.13
2023-04-29T10:01:51.061Z,17.83
2023-04-29T10:04:19.437Z,21.23
2023-04-29T10:06:49.081Z,19.07
2023-04-29T10:09:17.100Z,18.13
2023-04-29T10:11:44.851Z,18.33
2023-04-29T10:14:19.347Z,17.50
2023-04-29T10:16:51.072Z,13.83
2023-04-29T10:19:31.704Z,20.40
2023-04-29T10:22:01.237Z,16.00
2023-04-29T10:24:28.875Z,17.13
2023-04-29T10:26:57.000Z,16.00
2023-04-29T10:29:26.125Z,15.73
2023-04-29T10:31:54.525Z,17.50
2023-04-29T10:34:22.721Z,17.13
2023-04-29T10:36:50.632Z,18.43
2023-04-29T10:39:37.246Z,18.17
2023-04-29T10:42:06.280Z,17.13
2023-04-29T10:44:35.522Z,17.27
2023-04-29T10:47:21.554Z,16.57
2023-04-29T10:50:05.192Z,16.27
2023-04-29T10:52:51.745Z,17.70
2023-04-29T10:55:19.404Z,15.30
2023-04-29T10:57:46.921Z,15.50
2023-04-29T11:00:22.658Z,16.93
2023-04-29T11:02:50.379Z,16.33
2023-04-29T11:05:30.022Z,17.47
2023-04-29T11:08:20.129Z,12.00
2023-04-29T11:10:47.699Z,16.67
2023-04-29T11:13:31.034Z,18.90
2023-04-29T11:16:04.558Z,19.73
2023-04-29T11:18:32.254Z,19.10
2023-04-29T11:21:08.754Z,18.80
2023-04-29T11:23:36.716Z,17.93
2023-04-29T11:26:04.434Z,19.30
2023-04-29T11:28:32.881Z,18.43
2023-04-29T11:31:01.026Z,17.10
2023-04-29T11:33:28.722Z,16.07
2023-04-29T11:35:56.468Z,16.93
2023-04-29T11:38:27.089Z,16.60
2023-04-29T11:41:01.376Z,19.17
2023-04-29T11:43:28.934Z,16.70
2023-04-29T11:45:56.637Z,17.93
2023-04-29T11:48:25.231Z,17.87
2023-04-29T11:50:54.056Z,18.37
2023-04-29T11:53:22.022Z,20.20
2023-04-29T11:55:49.580Z,21.17
2023-04-29T11:58:17.169Z,18.77
2023-04-29T12:00:44.828Z,18.40
2023-04-29T12:03:16.017Z,16.07
2023-04-29T12:05:54.442Z,17.50
2023-04-29T12:08:28.807Z,19.87
2023-04-29T12:10:57.374Z,20.73
2023-04-29T12:13:26.593Z,19.53
2023-04-29T12:15:54.645Z,19.00
2023-04-29T12:18:22.257Z,18.97
2023-04-29T12:20:50.701Z,18.53
2023-04-29T12:23:19.005Z,19.27
2023-04-29T12:25:50.432Z,17.90
2023-04-29T12:28:18.290Z,17.73
2023-04-29T12:30:49.353Z,16.73
2023-04-29T12:33:23.739Z,16.33
2023-04-29T12:35:51.803Z,15.40
2023-04-29T12:38:26.459Z,16.00
2023-04-29T12:40:54.459Z,17.27
2023-04-29T12:43:26.788Z,17.93
2023-04-29T12:45:55.228Z,18.60
2023-04-29T12:48:29.814Z,18.37
2023-04-29T12:50:58.623Z,18.30
2023-04-29T12:53:29.819Z,14.17
2023-04-29T12:55:57.893Z,16.90
2023-04-29T12:58:25.432Z,17.53
2023-04-29T13:00:53.077Z,16.17
2023-04-29T13:03:22.330Z,15.57
2023-04-29T13:05:50.461Z,15.37
2023-04-29T13:08:17.929Z,14.20
2023-04-29T13:10:45.602Z,11.87
2023-04-29T13:13:13.195Z,12.73
2023-04-29T13:15:43.573Z,12.30
2023-04-29T13:18:11.340Z,10.17
2023-04-29T13:20:42.066Z,9.77
2023-04-29T13:23:13.628Z,9.13
2023-04-29T13:25:41.422Z,10.60
2023-04-29T13:28:08.928Z,10.97
2023-04-29T13:30:36.609Z,9.33
2023-04-29T13:33:09.735Z,9.63
2023-04-29T13:35:40.635Z,10.70
2023-04-29T13:38:08.738Z,10.63
2023-04-29T13:40:42.353Z,11.13
2023-04-29T13:43:18.628Z,11.23
2023-04-29T13:45:53.203Z,10.27
2023-04-29T13:53:56.790Z,10.60
2023-04-29T13:56:59.556Z,10.13
2023-04-29T14:04:03.135Z,8.23
2023-04-29T14:06:30.784Z,9.27
2023-04-29T14:08:58.513Z,8.57
2023-04-29T14:11:26.082Z,9.93
2023-04-29T14:13:53.710Z,9.00
2023-04-29T14:16:21.347Z,9.37
2023-04-29T14:18:49.170Z,10.13
2023-04-29T14:21:16.963Z,8.17
2023-04-29T14:23:44.683Z,9.33
2023-04-29T14:26:27.213Z,10.30
2023-04-29T14:28:56.656Z,9.07
2023-04-29T14:31:25.067Z,8.73
2023-04-29T14:33:52.701Z,9.63
2023-04-29T14:36:20.370Z,9.20
2023-04-29T14:38:47.973Z,9.90
2023-04-29T14:41:15.782Z,9.17
2023-04-29T14:43:43.380Z,9.93
2023-04-29T14:46:11.188Z,10.03
2023-04-29T14:48:38.747Z,8.93
2023-04-29T14:51:06.539Z,10.23
2023-04-29T14:53:34.090Z,8.57
2023-04-29T14:56:01.734Z,7.93
2023-04-29T14:58:29.298Z,8.20
2023-04-29T15:00:56.902Z,7.73
2023-04-29T15:03:24.590Z,8.37
2023-04-29T15:05:52.301Z,8.93
2023-04-29T15:08:19.967Z,8.03
2023-04-29T15:10:47.922Z,6.70
2023-04-29T15:13:15.665Z,7.20
2023-04-29T15:15:43.238Z,7.37
2023-04-29T15:18:10.881Z,6.43
2023-04-29T15:20:38.571Z,6.77
2023-04-29T15:23:06.562Z,7.40
2023-04-29T15:25:34.208Z,7.43
2023-04-29T15:28:02.151Z,7.37
2023-04-29T15:30:29.784Z,5.97
2023-04-29T15:32:57.387Z,6.33
2023-04-29T15:35:25.077Z,7.07
2023-04-29T15:37:52.673Z,7.50
2023-04-29T15:40:20.389Z,8.00
2023-04-29T15:42:48.057Z,7.30
2023-04-29T15:45:15.660Z,6.40
2023-04-29T15:47:43.212Z,6.70
2023-04-29T15:50:10.827Z,6.50
2023-04-29T15:52:38.383Z,6.53
2023-04-29T15:55:06.774Z,6.17
2023-04-29T15:57:34.371Z,5.83
2023-04-29T16:00:02.062Z,6.57
2023-04-29T16:02:29.708Z,6.23
2023-04-29T16:04:57.313Z,6.23
2023-04-29T16:07:24.864Z,6.87
2023-04-29T16:09:52.626Z,6.50
2023-04-29T16:12:20.321Z,6.83
2023-04-29T16:14:47.924Z,6.67
2023-04-29T16:17:15.428Z,6.97
2023-04-29T16:19:43.178Z,6.60
2023-04-29T16:22:10.875Z,7.17
2023-04-29T16:24:38.546Z,6.80
2023-04-29T16:27:06.116Z,6.90
2023-04-29T16:29:33.727Z,6.57
2023-04-29T16:32:01.263Z,7.27
2023-04-29T16:34:28.924Z,7.13
2023-04-29T16:36:56.487Z,6.80
2023-04-29T16:39:26.876Z,5.80
2023-04-29T16:41:54.436Z,6.33
2023-04-29T16:44:22.020Z,6.70
2023-04-29T16:46:49.929Z,6.33
2023-04-29T16:49:20.055Z,6.03
2023-04-29T16:51:47.793Z,6.57
2023-04-29T16:54:15.342Z,6.17
2023-04-29T16:56:42.874Z,6.23
2023-04-29T16:59:10.373Z,5.57
2023-04-29T17:01:38.062Z,6.83
2023-04-29T17:04:05.943Z,6.93
2023-04-29T17:06:33.739Z,7.20
2023-04-29T17:09:01.556Z,6.77
2023-04-29T17:11:29.224Z,6.40
2023-04-29T17:13:56.749Z,6.40
2023-04-29T17:16:24.357Z,6.70
2023-04-29T17:18:51.887Z,6.43
2023-04-29T17:21:19.484Z,5.77
2023-04-29T17:23:47.004Z,5.80
2023-04-29T17:26:14.568Z,6.00
2023-04-29T17:28:42.120Z,6.70
2023-04-29T17:31:09.653Z,5.87
2023-04-29T17:33:37.171Z,6.77
2023-04-29T17:36:06.602Z,5.70
2023-04-29T17:38:34.171Z,6.20
2023-04-29T17:41:04.439Z,5.83
2023-04-29T17:43:31.953Z,6.23
2023-04-29T17:45:59.509Z,5.83
2023-04-29T17:48:27.225Z,6.37
2023-04-29T17:50:54.826Z,6.20
2023-04-29T17:53:22.428Z,5.97
2023-04-29T17:55:49.986Z,5.97
2023-04-29T17:58:17.561Z,5.57
2023-04-29T18:00:46.166Z,5.80
2023-04-29T18:03:13.875Z,5.83
2023-04-29T18:05:41.421Z,5.80
2023-04-29T18:08:09.034Z,5.70
2023-04-29T18:10:36.504Z,5.43
2023-04-29T18:13:04.159Z,5.80
2023-04-29T18:15:31.708Z,5.90
2023-04-29T18:17:59.392Z,6.27
2023-04-29T18:20:26.913Z,5.60
2023-04-29T18:22:54.490Z,5.63
2023-04-29T18:25:22.059Z,6.07
2023-04-29T18:27:49.709Z,6.07
2023-04-29T18:30:17.504Z,6.17
2023-04-29T18:32:45.166Z,6.13
2023-04-29T18:35:12.721Z,6.17
2023-04-29T18:37:40.351Z,5.77
2023-04-29T18:40:08.245Z,5.67
2023-04-29T18:42:35.834Z,5.97
2023-04-29T18:45:03.377Z,6.23
2023-04-29T18:47:31.017Z,6.00
2023-04-29T18:49:58.583Z,5.90
2023-04-29T18:59:38.730Z,6.30
2023-04-29T19:02:06.777Z,7.07
2023-04-29T19:04:34.584Z,7.07
2023-04-29T19:07:02.390Z,7.50
2023-04-29T19:09:29.938Z,6.80
2023-04-29T19:11:57.916Z,6.60
2023-04-29T19:14:25.461Z,6.53
2023-04-29T19:16:53.274Z,6.50
2023-04-29T19:19:20.846Z,6.07
2023-04-29T19:21:48.868Z,6.70
2023-04-29T19:24:16.412Z,6.17
2023-04-29T19:26:44.015Z,5.80
2023-04-29T19:29:11.648Z,6.40
2023-04-29T19:31:39.264Z,6.57
2023-04-29T19:34:06.869Z,6.63
2023-04-29T19:36:34.508Z,6.67
2023-04-29T19:39:02.140Z,7.00
2023-04-29T19:41:29.738Z,7.03
2023-04-29T19:43:57.283Z,6.93
2023-04-29T19:46:24.906Z,6.97
2023-04-29T19:48:52.464Z,6.27
2023-04-29T19:51:20.093Z,6.80
2023-04-29T19:53:47.633Z,7.03
2023-04-29T19:56:15.210Z,6.23
2023-04-29T19:58:42.733Z,6.43
2023-04-29T20:01:10.432Z,6.77
2023-04-29T20:03:37.957Z,6.73
2023-04-29T20:06:06.164Z,6.93
2023-04-29T20:08:34.139Z,6.53
2023-04-29T20:11:01.784Z,7.17
2023-04-29T20:13:29.270Z,6.73
2023-04-29T20:15:57.043Z,7.43
2023-04-29T20:18:24.598Z,7.20
2023-04-29T20:20:55.605Z,6.87
2023-04-29T20:23:23.166Z,7.23
2023-04-29T20:25:50.708Z,6.67
2023-04-29T20:28:18.199Z,6.27
2023-04-29T20:30:45.790Z,7.50
2023-04-29T20:33:13.368Z,8.10
2023-04-29T20:35:40.885Z,6.90
2023-04-29T20:38:08.414Z,7.40
2023-04-29T20:40:35.938Z,7.67
2023-04-29T20:43:03.462Z,7.23
2023-04-29T20:45:31.004Z,7.80
2023-04-29T20:47:58.655Z,7.53
2023-04-29T20:50:26.290Z,7.23
2023-04-29T20:52:53.802Z,7.67
2023-04-29T20:55:21.387Z,7.97
2023-04-29T20:57:49.052Z,10.17
2023-04-29T21:00:16.718Z,9.57
2023-04-29T21:02:44.318Z,8.47
2023-04-29T21:05:11.989Z,8.40
2023-04-29T21:07:39.514Z,9.40
2023-04-29T21:10:07.188Z,9.03
2023-04-29T21:12:34.689Z,8.90
2023-04-29T21:15:02.206Z,9.10
2023-04-29T21:17:29.701Z,7.23
2023-04-29T21:19:57.390Z,8.87
2023-04-29T21:22:25.040Z,14.70
2023-04-29T21:24:52.656Z,8.17
2023-04-29T21:27:20.192Z,9.77
2023-04-29T21:29:47.829Z,9.33
2023-04-29T21:32:15.356Z,9.40
2023-04-29T21:34:44.154Z,9.07
2023-04-29T21:37:11.642Z,9.13
2023-04-29T21:39:39.193Z,8.30
2023-04-29T21:42:10.296Z,8.17
2023-04-29T21:44:38.462Z,8.30
2023-04-29T21:47:06.395Z,8.03
2023-04-29T21:49:34.221Z,6.97
2023-04-29T21:52:01.801Z,6.60
2023-04-29T21:54:29.398Z,7.43
2023-04-29T21:56:56.849Z,6.97
2023-04-29T21:59:24.425Z,7.93
2023-04-29T22:01:51.956Z,7.40
2023-04-29T22:04:19.538Z,6.87
2023-04-29T22:06:47.130Z,7.83
2023-04-29T22:09:14.699Z,7.10
2023-04-29T22:11:42.401Z,6.80
2023-04-29T22:14:10.160Z,6.53
2023-04-29T22:16:37.690Z,6.13
2023-04-29T22:19:05.286Z,4.90
2023-04-29T22:21:32.916Z,4.50
2023-04-29T22:24:00.515Z,4.30
2023-04-29T22:26:28.010Z,4.80
2023-04-29T22:28:55.587Z,5.40
2023-04-29T22:31:23.100Z,5.17
2023-04-29T22:33:50.752Z,5.40
2023-04-29T22:36:18.254Z,5.67
2023-04-29T22:38:45.851Z,6.47
2023-04-29T22:41:13.447Z,5.70
2023-04-29T22:43:40.950Z,6.43
2023-04-29T22:46:08.531Z,6.60
2023-04-29T22:48:36.197Z,6.77
2023-04-29T22:51:03.727Z,7.40
2023-04-29T22:53:31.373Z,7.23
2023-04-29T22:55:59.586Z,7.57
2023-04-29T22:58:27.163Z,6.53
2023-04-29T23:00:55.807Z,6.93
2023-04-29T23:03:23.436Z,6.53
2023-04-29T23:05:50.938Z,6.63
2023-04-29T23:08:18.608Z,6.33
2023-04-29T23:10:49.622Z,6.83
2023-04-29T23:13:17.619Z,6.87
2023-04-29T23:15:45.642Z,6.07
2023-04-29T23:18:13.518Z,7.97
2023-04-29T23:20:41.264Z,6.77
2023-04-29T23:23:08.833Z,6.70
2023-04-29T23:25:36.364Z,6.40
2023-04-29T23:28:03.960Z,6.90
2023-04-29T23:30:32.393Z,6.33
2023-04-29T23:33:00.068Z,7.20
2023-04-29T23:35:27.687Z,6.77
2023-04-29T23:37:55.376Z,7.30
2023-04-29T23:40:22.906Z,6.60
2023-04-29T23:42:50.508Z,8.43
2023-04-29T23:45:18.108Z,7.60
2023-04-29T23:47:45.926Z,7.53
2023-04-29T23:50:13.646Z,7.90
2023-04-29T23:52:41.349Z,7.83
2023-04-29T23:55:09.324Z,6.30
2023-04-29T23:57:36.999Z,7.70
